createdAt,value
2023-02-25T00:01:10.431Z,3.22
2023-02-25T00:03:38.968Z,3.58
2023-02-25T00:06:08.641Z,3.03
2023-02-25T00:08:37.124Z,3.50
2023-02-25T00:11:06.410Z,2.93
2023-02-25T00:13:36.719Z,3.60
2023-02-25T00:16:05.676Z,4.40
2023-02-25T00:18:34.200Z,3.93
2023-02-25T00:21:05.938Z,4.15
2023-02-25T00:23:34.426Z,4.33
2023-02-25T00:26:03.332Z,3.93
2023-02-25T00:28:31.776Z,3.60
2023-02-25T00:31:01.763Z,3.25
2023-02-25T00:33:30.312Z,3.00
2023-02-25T00:35:58.716Z,4.37
2023-02-25T00:38:27.964Z,3.92
2023-02-25T00:40:58.496Z,3.65
2023-02-25T00:43:30.770Z,3.37
2023-02-25T00:45:59.244Z,3.93
2023-02-25T00:48:29.145Z,3.63
2023-02-25T00:50:57.560Z,3.05
2023-02-25T00:53:26.008Z,3.33
2023-02-25T00:56:00.033Z,3.10
2023-02-25T00:58:28.502Z,3.40
2023-02-25T01:00:57.178Z,2.95
2023-02-25T01:03:25.871Z,2.67
2023-02-25T01:05:55.748Z,3.10
2023-02-25T01:08:24.415Z,2.85
2023-02-25T01:10:53.685Z,2.92
2023-02-25T01:13:22.156Z,2.15
2023-02-25T01:15:50.577Z,3.00
2023-02-25T01:18:20.618Z,2.90
2023-02-25T01:20:49.060Z,2.30
2023-02-25T01:23:18.895Z,3.10
2023-02-25T01:25:47.302Z,2.92
2023-02-25T01:28:15.735Z,2.88
2023-02-25T01:30:44.994Z,2.63
2023-02-25T01:33:13.537Z,2.07
2023-02-25T01:35:44.360Z,2.20
2023-02-25T01:38:12.830Z,2.20
2023-02-25T01:40:42.625Z,2.85
2023-02-25T01:43:15.124Z,2.83
2023-02-25T01:45:45.133Z,3.60
2023-02-25T01:48:15.529Z,2.93
2023-02-25T01:50:47.710Z,2.97
2023-02-25T01:53:17.220Z,3.87
2023-02-25T01:55:47.098Z,2.95
2023-02-25T01:58:17.070Z,3.67
2023-02-25T02:00:45.911Z,3.13
2023-02-25T02:03:16.986Z,3.88
2023-02-25T02:05:52.826Z,2.58
2023-02-25T02:08:21.436Z,3.23
2023-02-25T02:10:51.266Z,3.27
2023-02-25T02:13:19.932Z,3.00
2023-02-25T02:15:52.754Z,3.63
2023-02-25T02:18:22.172Z,2.60
2023-02-25T02:20:58.761Z,3.10
2023-02-25T02:23:41.396Z,3.93
2023-02-25T02:26:16.707Z,3.60
2023-02-25T02:29:02.803Z,3.07
2023-02-25T02:31:40.692Z,3.30
2023-02-25T02:34:16.686Z,2.60
2023-02-25T02:36:50.241Z,3.07
2023-02-25T02:39:22.299Z,3.17
2023-02-25T02:41:57.094Z,3.63
2023-02-25T02:44:29.271Z,3.08
2023-02-25T02:47:01.808Z,2.30
2023-02-25T02:49:32.397Z,3.00
2023-02-25T02:52:02.545Z,2.60
2023-02-25T02:54:33.829Z,2.70
2023-02-25T02:57:03.105Z,2.60
2023-02-25T02:59:33.238Z,2.60
2023-02-25T03:02:05.518Z,2.63
2023-02-25T03:04:35.919Z,2.87
2023-02-25T03:07:06.383Z,3.10
2023-02-25T03:09:37.007Z,3.17
2023-02-25T03:12:05.795Z,3.30
2023-02-25T03:14:34.441Z,4.10
2023-02-25T03:17:07.151Z,3.40
2023-02-25T03:19:39.090Z,3.17
2023-02-25T03:22:09.688Z,3.17
2023-02-25T03:24:42.240Z,3.35
2023-02-25T03:27:25.059Z,3.33
2023-02-25T03:29:53.743Z,3.00
2023-02-25T03:32:24.507Z,3.13
2023-02-25T03:34:57.605Z,2.53
2023-02-25T03:37:29.692Z,3.93
2023-02-25T03:40:00.168Z,2.97
2023-02-25T03:42:30.088Z,2.23
2023-02-25T03:45:01.027Z,3.05
2023-02-25T03:47:33.034Z,3.07
2023-02-25T03:50:02.632Z,2.50
2023-02-25T03:52:31.690Z,2.60
2023-02-25T03:55:00.714Z,3.40
2023-02-25T03:57:36.004Z,3.30
2023-02-25T04:00:15.784Z,2.93
2023-02-25T04:02:46.331Z,2.37
2023-02-25T04:05:15.244Z,3.15
2023-02-25T04:07:43.652Z,3.03
2023-02-25T04:10:13.541Z,3.13
2023-02-25T04:12:42.018Z,2.83
2023-02-25T04:15:11.167Z,2.73
2023-02-25T04:17:39.617Z,2.60
2023-02-25T04:20:10.350Z,3.73
2023-02-25T04:22:38.783Z,3.03
2023-02-25T04:25:07.912Z,2.90
2023-02-25T04:27:36.493Z,2.83
2023-02-25T04:30:05.289Z,2.97
2023-02-25T04:32:33.799Z,2.38
2023-02-25T04:35:03.344Z,2.58
2023-02-25T04:37:33.508Z,2.80
2023-02-25T04:40:02.141Z,2.35
2023-02-25T04:42:30.575Z,2.75
2023-02-25T04:44:58.989Z,3.13
2023-02-25T04:47:27.434Z,2.93
2023-02-25T04:49:55.841Z,2.30
2023-02-25T04:52:24.286Z,2.85
2023-02-25T04:54:54.056Z,2.25
2023-02-25T04:57:22.517Z,2.20
2023-02-25T04:59:50.918Z,3.03
2023-02-25T05:02:20.059Z,3.33
2023-02-25T05:04:49.114Z,2.03
2023-02-25T05:07:18.045Z,2.75
2023-02-25T05:09:46.493Z,3.50
2023-02-25T05:12:16.301Z,4.25
2023-02-25T05:14:44.862Z,2.35
2023-02-25T05:17:15.909Z,2.77
2023-02-25T05:19:44.327Z,2.70
2023-02-25T05:22:12.754Z,3.40
2023-02-25T05:24:41.292Z,2.72
2023-02-25T05:27:09.723Z,2.70
2023-02-25T05:29:39.638Z,2.92
2023-02-25T05:32:08.259Z,3.08
2023-02-25T05:34:36.785Z,3.25
2023-02-25T05:37:05.230Z,2.22
2023-02-25T05:39:33.639Z,2.28
2023-02-25T05:42:02.063Z,4.00
2023-02-25T05:44:30.460Z,3.53
2023-02-25T05:47:00.296Z,3.78
2023-02-25T05:49:29.509Z,2.85
2023-02-25T05:51:57.957Z,3.20
2023-02-25T05:54:27.105Z,3.05
2023-02-25T05:56:55.546Z,2.95
2023-02-25T05:59:23.950Z,3.55
2023-02-25T06:01:52.469Z,3.63
2023-02-25T06:04:22.266Z,2.67
2023-02-25T06:06:51.939Z,2.90
2023-02-25T06:09:20.750Z,3.25
2023-02-25T06:11:49.799Z,3.13
2023-02-25T06:14:18.237Z,3.07
2023-02-25T06:16:46.766Z,3.17
2023-02-25T06:19:15.326Z,3.30
2023-02-25T06:21:45.228Z,4.40
2023-02-25T06:24:13.679Z,3.00
2023-02-25T06:26:42.709Z,3.42
2023-02-25T06:29:11.290Z,3.20
2023-02-25T06:31:39.803Z,3.00
2023-02-25T06:34:08.274Z,3.00
2023-02-25T06:36:36.742Z,3.07
2023-02-25T06:39:06.577Z,3.10
2023-02-25T06:41:34.992Z,2.60
2023-02-25T06:44:04.332Z,3.00
2023-02-25T06:46:32.840Z,2.60
2023-02-25T06:49:01.301Z,2.58
2023-02-25T06:51:29.707Z,3.03
2023-02-25T06:53:58.206Z,2.90
2023-02-25T06:56:30.120Z,3.13
2023-02-25T06:58:59.775Z,3.23
2023-02-25T07:01:28.414Z,2.80
2023-02-25T07:03:56.898Z,2.90
2023-02-25T07:06:25.414Z,3.67
2023-02-25T07:08:53.928Z,2.78
2023-02-25T07:11:33.635Z,4.10
2023-02-25T07:14:02.325Z,3.25
2023-02-25T07:16:30.970Z,3.38
2023-02-25T07:19:01.731Z,2.93
2023-02-25T07:21:31.026Z,3.13
2023-02-25T07:23:59.627Z,2.90
2023-02-25T07:26:29.250Z,2.95
2023-02-25T07:28:59.923Z,3.75
2023-02-25T07:31:29.392Z,3.08
2023-02-25T07:34:00.107Z,2.85
2023-02-25T07:36:30.722Z,3.28
2023-02-25T07:38:59.434Z,3.88
2023-02-25T07:41:28.676Z,3.42
2023-02-25T07:43:57.407Z,2.72
2023-02-25T07:46:27.342Z,3.22
2023-02-25T07:48:55.798Z,3.25
2023-02-25T07:51:25.100Z,3.10
2023-02-25T07:53:54.606Z,3.22
2023-02-25T07:56:23.743Z,3.40
2023-02-25T07:58:52.254Z,2.83
2023-02-25T08:01:23.590Z,2.88
2023-02-25T08:03:54.109Z,3.88
2023-02-25T08:06:22.856Z,3.73
2023-02-25T08:08:52.290Z,3.38
2023-02-25T08:11:21.856Z,3.47
2023-02-25T08:13:50.587Z,3.30
2023-02-25T08:16:20.783Z,4.63
2023-02-25T08:18:49.838Z,3.50
2023-02-25T08:21:21.722Z,3.90
2023-02-25T08:23:50.483Z,3.85
2023-02-25T08:26:19.543Z,3.97
2023-02-25T08:28:48.129Z,4.07
2023-02-25T08:31:17.016Z,3.75
2023-02-25T08:33:49.734Z,3.35
2023-02-25T08:36:20.639Z,4.80
2023-02-25T08:38:49.945Z,5.32
2023-02-25T08:41:18.755Z,4.03
2023-02-25T08:43:51.365Z,4.85
2023-02-25T08:46:21.215Z,5.07
2023-02-25T08:48:50.932Z,5.25
2023-02-25T08:51:21.401Z,5.55
2023-02-25T08:53:49.950Z,4.05
2023-02-25T08:56:18.802Z,3.58
2023-02-25T08:58:47.237Z,3.40
2023-02-25T09:01:17.175Z,3.10
2023-02-25T09:03:52.857Z,4.20
2023-02-25T09:06:23.922Z,3.92
2023-02-25T09:08:52.740Z,3.22
2023-02-25T09:11:21.930Z,3.80
2023-02-25T09:13:50.551Z,3.55
2023-02-25T09:16:20.521Z,4.53
2023-02-25T09:18:50.205Z,3.72
2023-02-25T09:21:19.300Z,3.75
2023-02-25T09:23:51.349Z,3.10
2023-02-25T09:26:20.646Z,3.55
2023-02-25T09:28:49.484Z,4.10
2023-02-25T09:31:18.696Z,2.75
2023-02-25T09:33:47.402Z,2.20
2023-02-25T09:36:17.012Z,2.50
2023-02-25T09:38:46.792Z,2.38
2023-02-25T09:41:24.732Z,3.28
2023-02-25T09:44:00.901Z,2.53
2023-02-25T09:46:31.251Z,3.03
2023-02-25T09:49:01.816Z,2.05
2023-02-25T09:51:34.016Z,2.45
2023-02-25T09:54:08.386Z,2.55
2023-02-25T09:56:38.381Z,1.83
2023-02-25T09:59:10.612Z,1.77
2023-02-25T10:01:40.283Z,1.88
2023-02-25T10:04:11.407Z,1.63
2023-02-25T10:06:44.446Z,1.10
2023-02-25T10:09:18.693Z,1.45
2023-02-25T10:11:53.688Z,1.15
2023-02-25T10:14:31.244Z,1.02
2023-02-25T10:17:05.760Z,1.43
2023-02-25T10:19:41.861Z,1.20
2023-02-25T10:22:17.396Z,1.13
2023-02-25T10:24:48.176Z,1.20
2023-02-25T10:27:22.447Z,1.20
2023-02-25T10:29:53.031Z,1.40
2023-02-25T10:32:22.918Z,1.45
2023-02-25T10:34:52.554Z,1.73
2023-02-25T10:37:23.740Z,1.70
2023-02-25T10:39:55.035Z,1.70
2023-02-25T10:42:24.900Z,1.65
2023-02-25T10:44:53.826Z,1.77
2023-02-25T10:47:34.758Z,1.85
2023-02-25T10:50:14.019Z,2.08
2023-02-25T10:52:54.446Z,1.80
2023-02-25T10:55:40.607Z,1.45
2023-02-25T10:58:23.035Z,1.70
2023-02-25T11:00:56.447Z,2.28
2023-02-25T11:03:26.240Z,2.80
2023-02-25T11:05:56.091Z,2.05
2023-02-25T11:08:30.582Z,1.80
2023-02-25T11:11:03.067Z,1.98
2023-02-25T11:13:36.531Z,1.90
2023-02-25T11:16:07.629Z,1.70
2023-02-25T11:18:36.476Z,2.00
2023-02-25T11:21:07.213Z,1.50
2023-02-25T11:23:37.624Z,1.63
2023-02-25T11:26:06.924Z,2.33
2023-02-25T11:28:40.265Z,1.55
2023-02-25T11:31:10.465Z,2.05
2023-02-25T11:33:40.866Z,1.88
2023-02-25T11:36:09.849Z,1.60
2023-02-25T11:38:39.140Z,1.80
2023-02-25T11:41:16.349Z,1.85
2023-02-25T11:43:46.215Z,1.52
2023-02-25T11:46:19.560Z,1.80
2023-02-25T11:48:49.578Z,1.50
2023-02-25T11:51:21.088Z,2.88
2023-02-25T11:53:55.268Z,1.50
2023-02-25T11:56:26.689Z,1.70
2023-02-25T11:59:06.204Z,1.50
2023-02-25T12:01:42.050Z,2.00
2023-02-25T12:04:19.355Z,1.63
2023-02-25T12:06:57.362Z,2.03
2023-02-25T12:09:46.936Z,1.73
2023-02-25T12:12:27.538Z,1.60
2023-02-25T12:15:10.807Z,1.70
2023-02-25T12:18:06.105Z,2.10
2023-02-25T12:21:08.668Z,1.63
2023-02-25T12:23:52.094Z,2.20
2023-02-25T12:26:25.755Z,2.22
2023-02-25T12:29:03.540Z,1.55
2023-02-25T12:31:46.014Z,1.90
2023-02-25T12:34:33.850Z,2.00
2023-02-25T12:37:09.339Z,1.70
2023-02-25T12:39:47.607Z,2.10
2023-02-25T12:42:25.048Z,1.67
2023-02-25T12:45:05.122Z,1.70
2023-02-25T12:47:40.702Z,1.67
2023-02-25T12:50:24.003Z,2.08
2023-02-25T12:52:59.554Z,1.42
2023-02-25T12:55:43.920Z,1.98
2023-02-25T12:58:33.605Z,1.80
2023-02-25T13:01:22.265Z,1.55
2023-02-25T13:03:58.422Z,1.95
2023-02-25T13:06:36.589Z,1.50
2023-02-25T13:09:25.978Z,1.35
2023-02-25T13:12:15.438Z,1.50
2023-02-25T13:14:58.937Z,1.83
2023-02-25T13:17:46.333Z,2.00
2023-02-25T13:20:31.497Z,2.35
2023-02-25T13:23:06.613Z,1.67
2023-02-25T13:25:48.163Z,2.72
2023-02-25T13:28:26.142Z,1.85
2023-02-25T13:30:58.324Z,1.90
2023-02-25T13:33:33.159Z,2.00
2023-02-25T13:36:05.212Z,1.55
2023-02-25T13:38:43.664Z,2.15
2023-02-25T13:41:32.603Z,1.90
2023-02-25T13:44:07.863Z,3.17
2023-02-25T13:46:48.570Z,1.60
2023-02-25T13:49:31.828Z,1.50
2023-02-25T13:52:18.750Z,10.73
2023-02-25T13:55:09.853Z,1.67
2023-02-25T13:57:50.460Z,1.20
2023-02-25T14:00:35.189Z,1.65
2023-02-25T14:03:24.403Z,1.60
2023-02-25T14:06:00.844Z,1.52
2023-02-25T14:08:45.792Z,1.20
2023-02-25T14:11:27.536Z,1.70
2023-02-25T14:14:15.764Z,1.20
2023-02-25T14:17:02.958Z,1.30
2023-02-25T14:19:38.686Z,1.58
2023-02-25T14:22:21.239Z,1.35
2023-02-25T14:24:52.591Z,1.45
2023-02-25T14:27:26.167Z,1.30
2023-02-25T14:30:02.602Z,1.50
2023-02-25T14:32:35.860Z,1.00
2023-02-25T14:35:16.667Z,1.00
2023-02-25T14:37:49.958Z,1.00
2023-02-25T14:40:21.752Z,1.20
2023-02-25T14:42:58.125Z,1.23
2023-02-25T14:45:29.921Z,1.27
2023-02-25T14:48:00.523Z,1.23
2023-02-25T14:50:32.993Z,1.00
2023-02-25T14:53:10.487Z,1.23
2023-02-25T14:55:50.137Z,1.30
2023-02-25T14:58:28.228Z,1.20
2023-02-25T15:01:20.629Z,1.20
2023-02-25T15:03:57.142Z,1.60
2023-02-25T15:06:36.621Z,1.77
2023-02-25T15:09:17.374Z,1.63
2023-02-25T15:12:05.975Z,1.40
2023-02-25T15:15:07.543Z,1.35
2023-02-25T15:17:53.819Z,1.33
2023-02-25T15:20:27.458Z,1.40
2023-02-25T15:23:07.002Z,1.30
2023-02-25T15:25:43.620Z,1.38
2023-02-25T15:28:30.675Z,1.23
2023-02-25T15:31:07.044Z,1.52
2023-02-25T15:33:36.318Z,1.65
2023-02-25T15:36:21.641Z,1.35
2023-02-25T15:38:52.350Z,1.27
2023-02-25T15:41:41.822Z,1.40
2023-02-25T15:44:28.833Z,1.67
2023-02-25T15:47:12.822Z,1.50
2023-02-25T15:49:46.435Z,1.38
2023-02-25T15:52:15.281Z,1.40
2023-02-25T15:54:49.890Z,1.20
2023-02-25T15:57:33.314Z,1.65
2023-02-25T16:00:01.897Z,1.40
2023-02-25T16:02:43.253Z,1.35
2023-02-25T16:05:23.530Z,1.15
2023-02-25T16:07:53.490Z,1.40
2023-02-25T16:10:27.336Z,1.60
2023-02-25T16:12:57.739Z,0.90
2023-02-25T16:15:28.780Z,1.20
2023-02-25T16:17:58.724Z,1.40
2023-02-25T16:20:30.103Z,1.10
2023-02-25T16:22:59.528Z,1.10
2023-02-25T16:25:34.492Z,1.17
2023-02-25T16:28:06.191Z,1.45
2023-02-25T16:30:37.402Z,1.40
2023-02-25T16:33:09.727Z,1.38
2023-02-25T16:35:40.264Z,1.52
2023-02-25T16:38:15.245Z,1.35
2023-02-25T16:40:45.795Z,1.23
2023-02-25T16:43:15.594Z,1.20
2023-02-25T16:45:45.997Z,2.03
2023-02-25T16:48:17.830Z,2.70
2023-02-25T16:50:47.871Z,2.17
2023-02-25T16:53:19.563Z,1.38
2023-02-25T16:55:49.715Z,1.08
2023-02-25T16:58:23.240Z,1.75
2023-02-25T17:00:53.259Z,1.58
2023-02-25T17:03:22.423Z,1.92
2023-02-25T17:06:00.846Z,1.33
2023-02-25T17:08:29.664Z,1.40
2023-02-25T17:11:00.183Z,1.65
2023-02-25T17:13:29.704Z,1.23
2023-02-25T17:15:58.939Z,1.40
2023-02-25T17:18:31.251Z,1.45
2023-02-25T17:21:04.225Z,1.33
2023-02-25T17:23:33.452Z,1.15
2023-02-25T17:26:03.274Z,1.40
2023-02-25T17:28:32.917Z,1.20
2023-02-25T17:31:06.746Z,1.25
2023-02-25T17:33:35.384Z,1.67
2023-02-25T17:36:06.964Z,1.40
2023-02-25T17:38:36.605Z,1.30
2023-02-25T17:41:08.051Z,1.40
2023-02-25T17:43:37.744Z,1.52
2023-02-25T17:46:16.576Z,1.40
2023-02-25T17:48:46.156Z,1.50
2023-02-25T17:51:14.790Z,1.30
2023-02-25T17:53:45.966Z,1.60
2023-02-25T17:56:18.130Z,1.10
2023-02-25T17:58:49.227Z,1.50
2023-02-25T18:01:25.647Z,1.50
2023-02-25T18:03:55.086Z,1.40
2023-02-25T18:06:31.697Z,1.37
2023-02-25T18:09:02.802Z,1.40
2023-02-25T18:11:33.891Z,1.60
2023-02-25T18:14:04.014Z,1.80
2023-02-25T18:16:38.420Z,1.60
2023-02-25T18:19:30.853Z,1.60
2023-02-25T18:21:59.753Z,1.40
2023-02-25T18:24:30.868Z,1.70
2023-02-25T18:27:05.145Z,1.77
2023-02-25T18:29:33.893Z,1.53
2023-02-25T18:32:02.440Z,1.87
2023-02-25T18:34:31.734Z,2.30
2023-02-25T18:37:00.695Z,1.63
2023-02-25T18:39:31.327Z,1.80
2023-02-25T18:41:59.749Z,1.93
2023-02-25T18:44:29.604Z,1.47
2023-02-25T18:46:58.073Z,1.43
2023-02-25T18:49:26.727Z,1.80
2023-02-25T18:51:55.154Z,1.60
2023-02-25T18:54:23.540Z,1.97
2023-02-25T18:56:52.584Z,1.50
2023-02-25T18:59:21.106Z,1.80
2023-02-25T19:01:51.086Z,2.03
2023-02-25T19:04:20.523Z,1.70
2023-02-25T19:06:49.875Z,2.17
2023-02-25T19:09:18.313Z,1.57
2023-02-25T19:11:47.049Z,1.70
2023-02-25T19:14:19.702Z,1.90
2023-02-25T19:16:48.156Z,1.60
2023-02-25T19:19:18.036Z,2.23
2023-02-25T19:21:47.669Z,1.87
2023-02-25T19:24:16.260Z,2.20
2023-02-25T19:26:45.873Z,2.00
2023-02-25T19:29:14.315Z,1.80
2023-02-25T19:31:42.945Z,1.93
2023-02-25T19:34:11.714Z,1.97
2023-02-25T19:36:41.506Z,2.10
2023-02-25T19:39:09.951Z,2.10
2023-02-25T19:41:38.923Z,1.83
2023-02-25T19:44:07.427Z,1.80
2023-02-25T19:46:35.898Z,2.20
2023-02-25T19:49:04.327Z,2.60
2023-02-25T19:51:33.358Z,2.47
2023-02-25T19:54:03.509Z,2.63
2023-02-25T19:56:31.989Z,2.30
2023-02-25T19:59:00.658Z,1.87
2023-02-25T20:01:29.067Z,2.80
2023-02-25T20:03:57.507Z,2.00
2023-02-25T20:06:27.282Z,2.53
2023-02-25T20:08:55.948Z,1.97
2023-02-25T20:11:25.730Z,2.57
2023-02-25T20:13:54.179Z,2.57
2023-02-25T20:16:24.288Z,1.87
2023-02-25T20:18:53.533Z,2.40
2023-02-25T20:21:22.218Z,2.13
2023-02-25T20:23:50.856Z,2.47
2023-02-25T20:26:20.166Z,2.53
2023-02-25T20:28:50.368Z,2.57
2023-02-25T20:31:22.377Z,2.33
2023-02-25T20:33:51.119Z,2.83
2023-02-25T20:36:21.793Z,2.40
2023-02-25T20:39:00.991Z,2.67
2023-02-25T20:41:29.538Z,2.57
2023-02-25T20:43:59.501Z,2.20
2023-02-25T20:46:29.116Z,2.63
2023-02-25T20:48:58.263Z,2.63
2023-02-25T20:51:27.014Z,2.97
2023-02-25T20:53:55.904Z,2.47
2023-02-25T20:56:25.888Z,2.50
2023-02-25T20:58:55.290Z,2.10
2023-02-25T21:01:25.289Z,2.77
2023-02-25T21:03:53.796Z,2.60
2023-02-25T21:06:23.449Z,2.27
2023-02-25T21:08:52.267Z,3.37
2023-02-25T21:11:22.095Z,2.60
2023-02-25T21:13:51.461Z,2.57
2023-02-25T21:16:20.615Z,2.40
2023-02-25T21:18:50.581Z,2.27
2023-02-25T21:21:21.411Z,2.63
2023-02-25T21:23:52.658Z,2.00
2023-02-25T21:26:21.462Z,2.23
2023-02-25T21:28:50.042Z,2.37
2023-02-25T21:31:18.880Z,1.80
2023-02-25T21:33:47.652Z,2.10
2023-02-25T21:36:17.497Z,2.67
2023-02-25T21:38:45.928Z,1.83
2023-02-25T21:41:14.922Z,2.07
2023-02-25T21:43:44.268Z,2.00
2023-02-25T21:46:16.201Z,2.10
2023-02-25T21:48:46.776Z,2.00
2023-02-25T21:51:18.470Z,1.87
2023-02-25T21:53:46.913Z,2.10
2023-02-25T21:56:16.816Z,2.43
2023-02-25T21:58:45.369Z,2.00
2023-02-25T22:01:15.163Z,2.07
2023-02-25T22:03:43.839Z,1.90
2023-02-25T22:06:12.989Z,1.63
2023-02-25T22:08:43.183Z,1.70
2023-02-25T22:11:15.563Z,2.33
2023-02-25T22:13:44.355Z,2.20
2023-02-25T22:16:13.493Z,1.90
2023-02-25T22:18:42.118Z,1.90
2023-02-25T22:21:11.735Z,1.63
2023-02-25T22:23:40.409Z,1.87
2023-02-25T22:26:10.974Z,1.93
2023-02-25T22:28:39.382Z,2.53
2023-02-25T22:31:10.767Z,1.87
2023-02-25T22:33:39.351Z,1.60
2023-02-25T22:36:08.495Z,1.80
2023-02-25T22:38:38.505Z,1.93
2023-02-25T22:41:07.918Z,1.83
2023-02-25T22:43:37.751Z,1.97
2023-02-25T22:46:07.101Z,1.30
2023-02-25T22:48:36.244Z,1.43
2023-02-25T22:51:05.113Z,1.50
2023-02-25T22:53:33.546Z,1.43
2023-02-25T22:56:02.660Z,1.50
2023-02-25T22:58:31.232Z,1.30
2023-02-25T23:01:01.074Z,1.50
2023-02-25T23:03:29.556Z,1.57
2023-02-25T23:05:58.041Z,1.70
2023-02-25T23:08:26.456Z,1.30
2023-02-25T23:10:54.896Z,1.60
2023-02-25T23:13:23.372Z,1.80
2023-02-25T23:15:51.814Z,1.80
2023-02-25T23:18:22.012Z,1.70
2023-02-25T23:20:53.558Z,1.63
2023-02-25T23:23:22.062Z,1.80
2023-02-25T23:25:52.319Z,1.60
2023-02-25T23:28:20.758Z,1.57
2023-02-25T23:30:49.185Z,1.80
2023-02-25T23:33:17.976Z,1.90
2023-02-25T23:35:49.589Z,1.70
2023-02-25T23:38:18.021Z,2.07
2023-02-25T23:40:46.473Z,1.93
2023-02-25T23:43:14.869Z,1.60
2023-02-25T23:45:46.842Z,1.90
2023-02-25T23:48:15.927Z,1.50
2023-02-25T23:50:44.356Z,1.80
2023-02-25T23:53:14.157Z,2.00
2023-02-25T23:55:42.609Z,1.90
2023-02-25T23:58:11.067Z,1.80
